sensor_id;sensor_type;location;lat;lon;timestamp;pressure;altitude;pressure_sealevel;temperature;humidity
69247;BME280;56358;56.328;43.992;2022-12-01T00:01:28;103584.03;;;-12.60;75.49
69247;BME280;56358;56.328;43.992;2022-12-01T00:03:30;103570.31;;;-12.59;75.37
69247;BME280;56358;56.328;43.992;2022-12-01T00:05:31;103561.53;;;-12.74;75.42
69247;BME280;56358;56.328;43.992;2022-12-01T00:07:31;103565.50;;;-12.66;75.88
69247;BME280;56358;56.328;43.992;2022-12-01T00:09:32;103562.34;;;-12.62;75.64
69247;BME280;56358;56.328;43.992;2022-12-01T00:11:51;103562.84;;;-12.68;75.16
69247;BME280;56358;56.328;43.992;2022-12-01T00:13:52;103578.03;;;-12.72;74.34
69247;BME280;56358;56.328;43.992;2022-12-01T00:15:53;103555.09;;;-12.93;74.17
69247;BME280;56358;56.328;43.992;2022-12-01T00:17:53;103557.69;;;-12.93;74.56
69247;BME280;56358;56.328;43.992;2022-12-01T00:19:55;103574.31;;;-12.89;74.23
69247;BME280;56358;56.328;43.992;2022-12-01T00:21:56;103562.06;;;-12.92;73.86
69247;BME280;56358;56.328;43.992;2022-12-01T00:23:57;103571.38;;;-12.94;74.07
69247;BME280;56358;56.328;43.992;2022-12-01T00:26:04;103488.81;;;-13.44;74.14
69247;BME280;56358;56.328;43.992;2022-12-01T00:28:05;103508.47;;;-13.33;73.81
69247;BME280;56358;56.328;43.992;2022-12-01T00:30:08;103489.84;;;-13.54;73.95
69247;BME280;56358;56.328;43.992;2022-12-01T00:32:09;103564.81;;;-13.02;74.69
69247;BME280;56358;56.328;43.992;2022-12-01T00:34:23;103570.88;;;-13.02;74.19
69247;BME280;56358;56.328;43.992;2022-12-01T00:36:24;103574.16;;;-13.04;74.47
69247;BME280;56358;56.328;43.992;2022-12-01T00:38:25;103476.00;;;-13.68;74.05
69247;BME280;56358;56.328;43.992;2022-12-01T00:40:26;103584.16;;;-13.09;74.36
69247;BME280;56358;56.328;43.992;2022-12-01T00:42:27;103601.00;;;-13.14;74.93
69247;BME280;56358;56.328;43.992;2022-12-01T00:44:27;103487.63;;;-13.61;74.51
69247;BME280;56358;56.328;43.992;2022-12-01T00:46:28;103583.38;;;-13.08;74.42
69247;BME280;56358;56.328;43.992;2022-12-01T00:48:28;103582.25;;;-13.11;74.46
69247;BME280;56358;56.328;43.992;2022-12-01T00:50:29;103580.03;;;-13.19;75.13
69247;BME280;56358;56.328;43.992;2022-12-01T00:52:30;103560.31;;;-13.30;75.54
69247;BME280;56358;56.328;43.992;2022-12-01T00:54:30;103546.31;;;-13.34;75.29
69247;BME280;56358;56.328;43.992;2022-12-01T00:56:31;103578.88;;;-13.10;74.88
69247;BME280;56358;56.328;43.992;2022-12-01T00:58:32;103581.16;;;-13.15;75.17
69247;BME280;56358;56.328;43.992;2022-12-01T01:00:32;103519.56;;;-13.48;75.05
69247;BME280;56358;56.328;43.992;2022-12-01T01:02:33;103551.88;;;-13.27;75.15
69247;BME280;56358;56.328;43.992;2022-12-01T01:04:35;103558.94;;;-13.25;74.87
69247;BME280;56358;56.328;43.992;2022-12-01T01:06:36;103507.81;;;-13.56;75.03
69247;BME280;56358;56.328;43.992;2022-12-01T01:08:37;103548.50;;;-13.40;75.76
69247;BME280;56358;56.328;43.992;2022-12-01T01:10:39;103567.16;;;-13.31;75.79
69247;BME280;56358;56.328;43.992;2022-12-01T01:12:40;103567.75;;;-13.35;75.70
69247;BME280;56358;56.328;43.992;2022-12-01T01:14:41;103568.72;;;-13.33;75.51
69247;BME280;56358;56.328;43.992;2022-12-01T01:16:42;103563.47;;;-13.34;74.54
69247;BME280;56358;56.328;43.992;2022-12-01T01:18:42;103509.09;;;-13.74;74.59
69247;BME280;56358;56.328;43.992;2022-12-01T01:20:43;103568.72;;;-13.33;75.08
69247;BME280;56358;56.328;43.992;2022-12-01T01:22:43;103543.03;;;-13.44;74.81
69247;BME280;56358;56.328;43.992;2022-12-01T01:24:44;103560.41;;;-13.42;75.17
69247;BME280;56358;56.328;43.992;2022-12-01T01:26:45;103522.16;;;-13.59;75.15
69247;BME280;56358;56.328;43.992;2022-12-01T01:28:47;103558.13;;;-13.37;75.37
69247;BME280;56358;56.328;43.992;2022-12-01T01:30:47;103556.06;;;-13.29;74.97
69247;BME280;56358;56.328;43.992;2022-12-01T01:32:48;103557.53;;;-13.33;75.38
69247;BME280;56358;56.328;43.992;2022-12-01T01:34:49;103519.94;;;-13.55;75.03
69247;BME280;56358;56.328;43.992;2022-12-01T01:36:49;103549.38;;;-13.39;75.23
69247;BME280;56358;56.328;43.992;2022-12-01T01:38:50;103553.66;;;-13.40;75.11
69247;BME280;56358;56.328;43.992;2022-12-01T01:40:51;103563.97;;;-13.40;75.86
69247;BME280;56358;56.328;43.992;2022-12-01T01:42:52;103550.09;;;-13.42;75.44
69247;BME280;56358;56.328;43.992;2022-12-01T01:44:55;103574.56;;;-13.49;75.32
69247;BME280;56358;56.328;43.992;2022-12-01T01:46:56;103469.25;;;-14.03;76.05
69247;BME280;56358;56.328;43.992;2022-12-01T01:49:07;103569.50;;;-13.47;76.16
69247;BME280;56358;56.328;43.992;2022-12-01T01:51:10;103561.19;;;-13.43;75.27
69247;BME280;56358;56.328;43.992;2022-12-01T01:53:13;103569.03;;;-13.41;74.31
69247;BME280;56358;56.328;43.992;2022-12-01T01:55:14;103560.28;;;-13.43;74.37
69247;BME280;56358;56.328;43.992;2022-12-01T01:57:19;103431.59;;;-14.13;75.06
69247;BME280;56358;56.328;43.992;2022-12-01T01:59:27;103544.69;;;-13.45;75.52
69247;BME280;56358;56.328;43.992;2022-12-01T02:01:29;103552.03;;;-13.51;74.99
69247;BME280;56358;56.328;43.992;2022-12-01T02:03:31;103456.47;;;-14.02;75.01
69247;BME280;56358;56.328;43.992;2022-12-01T02:05:33;103549.63;;;-13.48;75.06
69247;BME280;56358;56.328;43.992;2022-12-01T02:07:38;103565.03;;;-13.50;74.81
69247;BME280;56358;56.328;43.992;2022-12-01T02:09:39;103541.25;;;-13.57;74.47
69247;BME280;56358;56.328;43.992;2022-12-01T02:17:17;103547.19;;;-13.58;73.81
69247;BME280;56358;56.328;43.992;2022-12-01T02:30:55;103543.28;;;-13.65;74.41
69247;BME280;56358;56.328;43.992;2022-12-01T02:40:30;103536.91;;;-13.70;75.42
69247;BME280;56358;56.328;43.992;2022-12-01T02:42:50;103532.00;;;-13.79;75.99
69247;BME280;56358;56.328;43.992;2022-12-01T02:44:56;103404.53;;;-14.43;75.38
69247;BME280;56358;56.328;43.992;2022-12-01T02:47:00;103527.97;;;-13.75;75.46
69247;BME280;56358;56.328;43.992;2022-12-01T02:49:06;103528.63;;;-13.78;74.97
69247;BME280;56358;56.328;43.992;2022-12-01T02:51:16;103514.16;;;-13.88;75.07
69247;BME280;56358;56.328;43.992;2022-12-01T02:53:19;103528.84;;;-13.75;75.37
69247;BME280;56358;56.328;43.992;2022-12-01T02:55:20;103524.66;;;-13.73;74.80
69247;BME280;56358;56.328;43.992;2022-12-01T02:57:21;103446.94;;;-14.14;74.87
69247;BME280;56358;56.328;43.992;2022-12-01T02:59:22;103525.59;;;-13.72;75.07
69247;BME280;56358;56.328;43.992;2022-12-01T03:09:14;103429.84;;;-14.26;75.39
69247;BME280;56358;56.328;43.992;2022-12-01T03:11:28;103482.47;;;-13.99;76.48
69247;BME280;56358;56.328;43.992;2022-12-01T03:18:25;103522.09;;;-13.73;75.72
69247;BME280;56358;56.328;43.992;2022-12-01T03:20:37;103527.97;;;-13.75;75.96
69247;BME280;56358;56.328;43.992;2022-12-01T03:22:53;103512.25;;;-13.90;76.22
69247;BME280;56358;56.328;43.992;2022-12-01T03:24:59;103504.66;;;-13.89;76.69
69247;BME280;56358;56.328;43.992;2022-12-01T03:27:03;103526.38;;;-13.73;76.10
69247;BME280;56358;56.328;43.992;2022-12-01T03:29:08;103488.75;;;-13.95;76.37
69247;BME280;56358;56.328;43.992;2022-12-01T03:31:15;103518.06;;;-13.81;76.51
69247;BME280;56358;56.328;43.992;2022-12-01T03:33:26;103499.16;;;-13.93;76.31
69247;BME280;56358;56.328;43.992;2022-12-01T03:35:34;103526.72;;;-13.80;77.16
69247;BME280;56358;56.328;43.992;2022-12-01T03:39:55;103492.66;;;-14.00;76.41
69247;BME280;56358;56.328;43.992;2022-12-01T03:42:01;103488.75;;;-14.07;75.66
69247;BME280;56358;56.328;43.992;2022-12-01T03:44:27;103521.25;;;-13.97;75.51
69247;BME280;56358;56.328;43.992;2022-12-01T03:46:47;103522.50;;;-14.04;74.87
69247;BME280;56358;56.328;43.992;2022-12-01T03:48:51;103494.75;;;-14.31;75.02
69247;BME280;56358;56.328;43.992;2022-12-01T03:53:14;103534.84;;;-14.35;75.10
69247;BME280;56358;56.328;43.992;2022-12-01T03:57:33;103532.47;;;-14.44;75.70
69247;BME280;56358;56.328;43.992;2022-12-01T03:59:36;103271.03;;;-15.93;75.17
69247;BME280;56358;56.328;43.992;2022-12-01T04:01:38;103538.44;;;-14.45;75.35
69247;BME280;56358;56.328;43.992;2022-12-01T04:03:38;103538.63;;;-14.54;75.41
69247;BME280;56358;56.328;43.992;2022-12-01T04:05:39;103540.66;;;-14.50;75.73
69247;BME280;56358;56.328;43.992;2022-12-01T04:07:40;103523.31;;;-14.64;75.97
69247;BME280;56358;56.328;43.992;2022-12-01T04:09:40;103537.41;;;-14.47;75.11
69247;BME280;56358;56.328;43.992;2022-12-01T04:11:41;103524.06;;;-14.53;75.27
69247;BME280;56358;56.328;43.992;2022-12-01T04:14:00;103548.28;;;-14.39;75.48
69247;BME280;56358;56.328;43.992;2022-12-01T04:16:01;103545.50;;;-14.42;74.98
69247;BME280;56358;56.328;43.992;2022-12-01T04:18:01;103532.03;;;-14.50;75.30
69247;BME280;56358;56.328;43.992;2022-12-01T04:20:03;103527.75;;;-14.61;75.39
69247;BME280;56358;56.328;43.992;2022-12-01T04:22:05;103542.47;;;-14.48;75.40
69247;BME280;56358;56.328;43.992;2022-12-01T04:24:06;103541.09;;;-14.55;75.02
69247;BME280;56358;56.328;43.992;2022-12-01T04:26:07;103550.06;;;-14.50;74.91
69247;BME280;56358;56.328;43.992;2022-12-01T04:28:08;103545.91;;;-14.48;74.88
69247;BME280;56358;56.328;43.992;2022-12-01T04:30:09;103550.66;;;-14.42;74.90
69247;BME280;56358;56.328;43.992;2022-12-01T04:32:10;103547.59;;;-14.60;75.21
69247;BME280;56358;56.328;43.992;2022-12-01T04:34:11;103554.09;;;-14.54;75.95
69247;BME280;56358;56.328;43.992;2022-12-01T04:36:11;103542.34;;;-14.50;75.94
69247;BME280;56358;56.328;43.992;2022-12-01T04:38:12;103551.44;;;-14.43;75.57
69247;BME280;56358;56.328;43.992;2022-12-01T04:40:13;103559.63;;;-14.49;76.00
69247;BME280;56358;56.328;43.992;2022-12-01T04:42:13;103551.31;;;-14.45;76.01
69247;BME280;56358;56.328;43.992;2022-12-01T04:44:14;103556.22;;;-14.48;75.97
69247;BME280;56358;56.328;43.992;2022-12-01T04:46:15;103558.03;;;-14.47;76.55
69247;BME280;56358;56.328;43.992;2022-12-01T04:48:15;103557.56;;;-14.41;76.45
69247;BME280;56358;56.328;43.992;2022-12-01T04:50:16;103560.50;;;-14.37;76.50
69247;BME280;56358;56.328;43.992;2022-12-01T04:52:17;103557.38;;;-14.33;76.60
69247;BME280;56358;56.328;43.992;2022-12-01T04:54:17;103553.78;;;-14.35;75.94
69247;BME280;56358;56.328;43.992;2022-12-01T04:56:18;103545.50;;;-14.42;74.75
69247;BME280;56358;56.328;43.992;2022-12-01T04:58:19;103571.50;;;-14.27;75.05
69247;BME280;56358;56.328;43.992;2022-12-01T05:00:19;103555.56;;;-14.34;75.50
69247;BME280;56358;56.328;43.992;2022-12-01T05:02:20;103568.13;;;-14.26;75.36
69247;BME280;56358;56.328;43.992;2022-12-01T05:04:21;103421.59;;;-15.17;75.41
69247;BME280;56358;56.328;43.992;2022-12-01T05:06:24;103560.72;;;-14.34;75.93
69247;BME280;56358;56.328;43.992;2022-12-01T05:08:26;103584.13;;;-14.30;75.65
69247;BME280;56358;56.328;43.992;2022-12-01T05:10:27;103554.34;;;-14.27;74.87
69247;BME280;56358;56.328;43.992;2022-12-01T05:12:27;103577.66;;;-14.25;73.85
69247;BME280;56358;56.328;43.992;2022-12-01T05:14:28;103582.25;;;-14.21;73.98
69247;BME280;56358;56.328;43.992;2022-12-01T05:16:30;103576.41;;;-14.19;74.24
69247;BME280;56358;56.328;43.992;2022-12-01T05:18:32;103580.59;;;-14.21;74.63
69247;BME280;56358;56.328;43.992;2022-12-01T05:20:32;103583.28;;;-14.19;74.52
69247;BME280;56358;56.328;43.992;2022-12-01T05:22:57;103555.69;;;-14.20;73.35
69247;BME280;56358;56.328;43.992;2022-12-01T05:24:59;103583.69;;;-14.01;73.08
69247;BME280;56358;56.328;43.992;2022-12-01T05:27:00;103411.78;;;-14.98;72.78
69247;BME280;56358;56.328;43.992;2022-12-01T05:29:01;103572.84;;;-14.09;72.42
69247;BME280;56358;56.328;43.992;2022-12-01T05:31:02;103576.53;;;-14.05;72.82
69247;BME280;56358;56.328;43.992;2022-12-01T05:33:02;103578.91;;;-14.08;72.87
69247;BME280;56358;56.328;43.992;2022-12-01T05:35:03;103579.22;;;-14.04;73.08
69247;BME280;56358;56.328;43.992;2022-12-01T05:37:04;103474.34;;;-14.64;73.17
69247;BME280;56358;56.328;43.992;2022-12-01T05:39:05;103547.50;;;-14.26;73.36
69247;BME280;56358;56.328;43.992;2022-12-01T05:41:06;103497.75;;;-14.61;73.11
69247;BME280;56358;56.328;43.992;2022-12-01T05:43:06;103477.03;;;-14.62;73.07
69247;BME280;56358;56.328;43.992;2022-12-01T05:45:07;103570.28;;;-14.09;73.46
69247;BME280;56358;56.328;43.992;2022-12-01T05:47:08;103553.09;;;-14.20;73.56
69247;BME280;56358;56.328;43.992;2022-12-01T05:49:09;103565.91;;;-14.10;73.64
69247;BME280;56358;56.328;43.992;2022-12-01T05:51:12;103570.28;;;-14.21;74.02
69247;BME280;56358;56.328;43.992;2022-12-01T05:53:13;103580.91;;;-14.04;74.02
69247;BME280;56358;56.328;43.992;2022-12-01T05:55:14;103570.81;;;-14.01;74.92
69247;BME280;56358;56.328;43.992;2022-12-01T05:57:15;103556.16;;;-14.02;74.29
69247;BME280;56358;56.328;43.992;2022-12-01T05:59:16;103501.81;;;-14.29;73.45
69247;BME280;56358;56.328;43.992;2022-12-01T06:01:16;103499.09;;;-14.30;72.59
69247;BME280;56358;56.328;43.992;2022-12-01T06:03:17;103541.91;;;-14.09;73.30
69247;BME280;56358;56.328;43.992;2022-12-01T06:05:18;103591.22;;;-13.80;73.93
69247;BME280;56358;56.328;43.992;2022-12-01T06:07:19;103598.41;;;-13.76;74.03
69247;BME280;56358;56.328;43.992;2022-12-01T06:09:20;103598.28;;;-13.78;73.73
69247;BME280;56358;56.328;43.992;2022-12-01T06:11:20;103487.88;;;-14.31;73.93
69247;BME280;56358;56.328;43.992;2022-12-01T06:13:21;103537.38;;;-14.00;73.90
69247;BME280;56358;56.328;43.992;2022-12-01T06:15:22;103587.94;;;-13.66;74.11
69247;BME280;56358;56.328;43.992;2022-12-01T06:17:23;103539.06;;;-13.88;73.25
69247;BME280;56358;56.328;43.992;2022-12-01T06:19:24;103485.09;;;-14.22;73.33
69247;BME280;56358;56.328;43.992;2022-12-01T06:21:24;103583.13;;;-13.73;72.96
69247;BME280;56358;56.328;43.992;2022-12-01T06:23:25;103594.78;;;-13.78;73.30
69247;BME280;56358;56.328;43.992;2022-12-01T06:25:25;103579.88;;;-13.83;73.57
69247;BME280;56358;56.328;43.992;2022-12-01T06:27:26;103594.78;;;-13.78;73.99
69247;BME280;56358;56.328;43.992;2022-12-01T06:29:28;103593.34;;;-13.87;73.90
69247;BME280;56358;56.328;43.992;2022-12-01T06:31:29;103587.63;;;-13.71;73.21
69247;BME280;56358;56.328;43.992;2022-12-01T06:33:30;103587.63;;;-13.71;73.80
69247;BME280;56358;56.328;43.992;2022-12-01T06:35:31;103459.22;;;-14.36;73.14
69247;BME280;56358;56.328;43.992;2022-12-01T06:37:31;103582.34;;;-13.60;73.92
69247;BME280;56358;56.328;43.992;2022-12-01T06:39:32;103585.22;;;-13.56;73.03
69247;BME280;56358;56.328;43.992;2022-12-01T06:41:33;103563.25;;;-13.62;72.96
69247;BME280;56358;56.328;43.992;2022-12-01T06:43:36;103577.69;;;-13.53;73.23
69247;BME280;56358;56.328;43.992;2022-12-01T06:45:37;103593.63;;;-13.46;72.54
69247;BME280;56358;56.328;43.992;2022-12-01T06:47:38;103571.28;;;-13.46;72.47
69247;BME280;56358;56.328;43.992;2022-12-01T06:49:38;103587.88;;;-13.42;72.45
69247;BME280;56358;56.328;43.992;2022-12-01T06:51:39;103561.00;;;-13.58;72.28
69247;BME280;56358;56.328;43.992;2022-12-01T06:53:40;103574.78;;;-13.45;71.69
69247;BME280;56358;56.328;43.992;2022-12-01T06:55:40;103558.88;;;-13.63;72.19
69247;BME280;56358;56.328;43.992;2022-12-01T06:57:41;103558.84;;;-13.52;72.08
69247;BME280;56358;56.328;43.992;2022-12-01T06:59:42;103568.94;;;-13.43;72.07
69247;BME280;56358;56.328;43.992;2022-12-01T07:01:43;103572.28;;;-13.44;71.51
69247;BME280;56358;56.328;43.992;2022-12-01T07:03:50;103566.94;;;-13.47;72.10
69247;BME280;56358;56.328;43.992;2022-12-01T07:05:57;103564.56;;;-13.44;72.24
69247;BME280;56358;56.328;43.992;2022-12-01T07:07:58;103550.75;;;-13.44;71.95
69247;BME280;56358;56.328;43.992;2022-12-01T07:10:00;103497.69;;;-13.78;72.07
69247;BME280;56358;56.328;43.992;2022-12-01T07:12:00;103564.28;;;-13.35;71.53
69247;BME280;56358;56.328;43.992;2022-12-01T07:14:01;103573.75;;;-13.48;71.62
69247;BME280;56358;56.328;43.992;2022-12-01T07:16:03;103576.91;;;-13.52;71.85
69247;BME280;56358;56.328;43.992;2022-12-01T07:18:04;103576.38;;;-13.34;71.54
69247;BME280;56358;56.328;43.992;2022-12-01T07:20:05;103564.28;;;-13.35;71.22
69247;BME280;56358;56.328;43.992;2022-12-01T07:22:06;103567.84;;;-13.33;71.68
69247;BME280;56358;56.328;43.992;2022-12-01T07:24:07;103541.00;;;-13.49;71.36
69247;BME280;56358;56.328;43.992;2022-12-01T07:26:16;103584.22;;;-13.33;71.73
69247;BME280;56358;56.328;43.992;2022-12-01T07:28:17;103504.84;;;-13.74;72.20
69247;BME280;56358;56.328;43.992;2022-12-01T07:30:17;103568.06;;;-13.30;72.76
69247;BME280;56358;56.328;43.992;2022-12-01T07:32:18;103569.94;;;-13.27;72.49
69247;BME280;56358;56.328;43.992;2022-12-01T07:34:19;103563.91;;;-13.28;73.13
69247;BME280;56358;56.328;43.992;2022-12-01T07:36:19;103558.06;;;-13.25;72.38
69247;BME280;56358;56.328;43.992;2022-12-01T07:38:20;103557.59;;;-13.45;72.24
69247;BME280;56358;56.328;43.992;2022-12-01T07:40:21;103561.31;;;-13.28;72.45
69247;BME280;56358;56.328;43.992;2022-12-01T07:42:22;103513.97;;;-13.54;73.22
69247;BME280;56358;56.328;43.992;2022-12-01T07:44:22;103477.44;;;-13.72;72.41
69247;BME280;56358;56.328;43.992;2022-12-01T07:46:24;103574.41;;;-13.13;72.47
69247;BME280;56358;56.328;43.992;2022-12-01T07:48:28;103556.38;;;-13.25;72.29
69247;BME280;56358;56.328;43.992;2022-12-01T07:50:29;103585.88;;;-13.21;72.36
69247;BME280;56358;56.328;43.992;2022-12-01T07:52:29;103567.56;;;-13.12;72.36
69247;BME280;56358;56.328;43.992;2022-12-01T07:54:30;103332.72;;;-14.51;71.96
69247;BME280;56358;56.328;43.992;2022-12-01T07:56:32;103567.44;;;-13.14;72.37
69247;BME280;56358;56.328;43.992;2022-12-01T07:58:33;103565.97;;;-13.10;73.01
69247;BME280;56358;56.328;43.992;2022-12-01T08:00:34;103557.25;;;-13.12;72.80
69247;BME280;56358;56.328;43.992;2022-12-01T08:02:34;103564.22;;;-12.98;72.67
69247;BME280;56358;56.328;43.992;2022-12-01T08:04:35;103563.91;;;-13.03;72.28
69247;BME280;56358;56.328;43.992;2022-12-01T08:06:36;103558.06;;;-13.00;72.96
69247;BME280;56358;56.328;43.992;2022-12-01T08:08:39;103567.91;;;-12.94;72.16
69247;BME280;56358;56.328;43.992;2022-12-01T08:10:40;103571.63;;;-12.91;71.44
69247;BME280;56358;56.328;43.992;2022-12-01T08:12:40;103576.19;;;-12.87;72.18
69247;BME280;56358;56.328;43.992;2022-12-01T08:14:41;103562.69;;;-12.83;71.84
69247;BME280;56358;56.328;43.992;2022-12-01T08:16:42;103470.06;;;-13.28;71.88
69247;BME280;56358;56.328;43.992;2022-12-01T08:18:43;103565.41;;;-12.68;72.15
69247;BME280;56358;56.328;43.992;2022-12-01T08:20:43;103564.13;;;-12.61;71.56
69247;BME280;56358;56.328;43.992;2022-12-01T08:22:44;103544.13;;;-12.77;70.66
69247;BME280;56358;56.328;43.992;2022-12-01T08:24:45;103560.63;;;-12.75;71.18
69247;BME280;56358;56.328;43.992;2022-12-01T08:26:46;103565.81;;;-12.75;71.54
69247;BME280;56358;56.328;43.992;2022-12-01T08:28:47;103549.09;;;-12.80;71.75
69247;BME280;56358;56.328;43.992;2022-12-01T08:30:48;103570.78;;;-12.65;72.28
69247;BME280;56358;56.328;43.992;2022-12-01T08:32:52;103557.22;;;-12.74;71.96
69247;BME280;56358;56.328;43.992;2022-12-01T08:34:53;103558.78;;;-12.64;72.28
69247;BME280;56358;56.328;43.992;2022-12-01T08:36:54;103554.38;;;-12.65;72.73
69247;BME280;56358;56.328;43.992;2022-12-01T08:38:55;103547.84;;;-12.60;73.08
69247;BME280;56358;56.328;43.992;2022-12-01T08:41:00;103558.28;;;-12.58;71.22
69247;BME280;56358;56.328;43.992;2022-12-01T08:43:01;103558.09;;;-12.48;72.10
69247;BME280;56358;56.328;43.992;2022-12-01T08:45:01;103509.31;;;-12.82;72.82
69247;BME280;56358;56.328;43.992;2022-12-01T08:47:04;103554.03;;;-12.31;72.58
69247;BME280;56358;56.328;43.992;2022-12-01T08:49:05;103555.13;;;-12.27;72.11
69247;BME280;56358;56.328;43.992;2022-12-01T08:51:15;103551.25;;;-12.34;71.90
69247;BME280;56358;56.328;43.992;2022-12-01T08:53:16;103553.94;;;-12.33;71.81
69247;BME280;56358;56.328;43.992;2022-12-01T08:55:16;103543.59;;;-12.33;72.45
69247;BME280;56358;56.328;43.992;2022-12-01T08:57:17;103538.50;;;-12.31;72.38
69247;BME280;56358;56.328;43.992;2022-12-01T08:59:17;103525.28;;;-12.36;72.07
69247;BME280;56358;56.328;43.992;2022-12-01T09:01:19;103521.31;;;-12.44;71.84
69247;BME280;56358;56.328;43.992;2022-12-01T09:03:19;103541.59;;;-12.23;72.60
69247;BME280;56358;56.328;43.992;2022-12-01T09:05:20;103545.06;;;-12.23;72.14
69247;BME280;56358;56.328;43.992;2022-12-01T09:07:21;103541.19;;;-12.16;71.74
69247;BME280;56358;56.328;43.992;2022-12-01T09:09:25;103534.84;;;-12.21;72.09
69247;BME280;56358;56.328;43.992;2022-12-01T09:11:26;103532.56;;;-12.17;72.63
69247;BME280;56358;56.328;43.992;2022-12-01T09:13:26;103534.44;;;-12.14;72.19
69247;BME280;56358;56.328;43.992;2022-12-01T09:15:27;103526.97;;;-12.09;72.35
69247;BME280;56358;56.328;43.992;2022-12-01T09:17:28;103513.56;;;-12.17;71.91
69247;BME280;56358;56.328;43.992;2022-12-01T09:19:29;103526.19;;;-12.08;71.95
69247;BME280;56358;56.328;43.992;2022-12-01T09:21:31;103387.50;;;-12.88;72.04
69247;BME280;56358;56.328;43.992;2022-12-01T09:23:32;103527.56;;;-12.00;71.83
69247;BME280;56358;56.328;43.992;2022-12-01T09:25:33;103524.50;;;-11.94;71.57
69247;BME280;56358;56.328;43.992;2022-12-01T09:27:34;103524.28;;;-11.98;71.61
69247;BME280;56358;56.328;43.992;2022-12-01T09:29:34;103446.25;;;-12.32;72.24
69247;BME280;56358;56.328;43.992;2022-12-01T09:31:35;103516.28;;;-11.87;72.28
69247;BME280;56358;56.328;43.992;2022-12-01T09:33:36;103519.03;;;-11.84;72.08
69247;BME280;56358;56.328;43.992;2022-12-01T09:35:37;103465.31;;;-12.30;72.01
69247;BME280;56358;56.328;43.992;2022-12-01T09:37:38;103531.09;;;-11.85;71.85
69247;BME280;56358;56.328;43.992;2022-12-01T09:39:39;103507.63;;;-11.88;71.95
69247;BME280;56358;56.328;43.992;2022-12-01T09:46:25;103526.69;;;-11.72;72.55
69247;BME280;56358;56.328;43.992;2022-12-01T09:48:34;103523.59;;;-11.67;72.67
69247;BME280;56358;56.328;43.992;2022-12-01T09:50:42;103517.72;;;-11.64;72.54
69247;BME280;56358;56.328;43.992;2022-12-01T09:54:58;103523.09;;;-11.61;72.56
69247;BME280;56358;56.328;43.992;2022-12-01T09:56:59;103428.41;;;-12.14;72.69
69247;BME280;56358;56.328;43.992;2022-12-01T09:59:03;103537.19;;;-11.56;72.59
69247;BME280;56358;56.328;43.992;2022-12-01T10:01:12;103491.47;;;-11.70;72.63
69247;BME280;56358;56.328;43.992;2022-12-01T10:05:24;103505.94;;;-11.59;72.80
69247;BME280;56358;56.328;43.992;2022-12-01T10:07:30;103408.19;;;-12.06;72.53
69247;BME280;56358;56.328;43.992;2022-12-01T10:11:37;103511.16;;;-11.44;72.87
69247;BME280;56358;56.328;43.992;2022-12-01T10:13:39;103510.69;;;-11.38;72.97
69247;BME280;56358;56.328;43.992;2022-12-01T10:20:30;103531.69;;;-11.19;72.79
69247;BME280;56358;56.328;43.992;2022-12-01T10:27:22;103521.00;;;-11.10;73.33
69247;BME280;56358;56.328;43.992;2022-12-01T10:29:40;103316.53;;;-12.25;72.91
69247;BME280;56358;56.328;43.992;2022-12-01T10:31:54;103526.47;;;-11.05;72.80
69247;BME280;56358;56.328;43.992;2022-12-01T10:34:10;103495.53;;;-11.17;73.26
69247;BME280;56358;56.328;43.992;2022-12-01T10:36:12;103513.50;;;-11.05;73.54
69247;BME280;56358;56.328;43.992;2022-12-01T10:38:26;103523.25;;;-11.01;73.29
69247;BME280;56358;56.328;43.992;2022-12-01T10:40:27;103518.97;;;-11.01;72.91
69247;BME280;56358;56.328;43.992;2022-12-01T10:42:36;103513.50;;;-11.05;73.00
69247;BME280;56358;56.328;43.992;2022-12-01T10:44:40;103524.50;;;-10.95;72.79
69247;BME280;56358;56.328;43.992;2022-12-01T10:46:53;103528.09;;;-10.92;73.33
69247;BME280;56358;56.328;43.992;2022-12-01T10:48:56;103513.19;;;-10.97;73.47
69247;BME280;56358;56.328;43.992;2022-12-01T10:51:14;103438.25;;;-11.37;73.22
69247;BME280;56358;56.328;43.992;2022-12-01T10:53:30;103516.56;;;-10.98;73.18
69247;BME280;56358;56.328;43.992;2022-12-01T10:55:35;103521.84;;;-10.81;73.38
69247;BME280;56358;56.328;43.992;2022-12-01T10:57:37;103470.78;;;-11.12;73.17
69247;BME280;56358;56.328;43.992;2022-12-01T11:00:00;103522.94;;;-10.77;73.15
69247;BME280;56358;56.328;43.992;2022-12-01T11:02:04;103472.13;;;-11.04;72.71
69247;BME280;56358;56.328;43.992;2022-12-01T11:06:32;103515.06;;;-10.79;72.73
69247;BME280;56358;56.328;43.992;2022-12-01T11:08:44;103522.63;;;-10.82;72.69
69247;BME280;56358;56.328;43.992;2022-12-01T11:10:47;103496.00;;;-10.95;72.95
69247;BME280;56358;56.328;43.992;2022-12-01T11:12:57;103510.31;;;-10.86;73.02
69247;BME280;56358;56.328;43.992;2022-12-01T11:15:00;103517.28;;;-10.85;72.98
69247;BME280;56358;56.328;43.992;2022-12-01T11:17:38;103517.91;;;-10.89;73.35
69247;BME280;56358;56.328;43.992;2022-12-01T11:19:39;103498.97;;;-10.88;73.31
69247;BME280;56358;56.328;43.992;2022-12-01T11:21:46;103510.03;;;-10.91;73.42
69247;BME280;56358;56.328;43.992;2022-12-01T11:23:50;103440.41;;;-11.30;72.99
69247;BME280;56358;56.328;43.992;2022-12-01T11:26:11;103513.53;;;-10.75;73.00
69247;BME280;56358;56.328;43.992;2022-12-01T11:28:18;103375.53;;;-11.61;72.63
69247;BME280;56358;56.328;43.992;2022-12-01T11:30:25;103531.41;;;-10.80;72.88
69247;BME280;56358;56.328;43.992;2022-12-01T11:32:28;103534.72;;;-10.83;73.45
69247;BME280;56358;56.328;43.992;2022-12-01T11:34:31;103503.06;;;-10.92;73.08